createdAt,value
2023-05-11T00:00:05.579Z,0.59
2023-05-11T00:01:05.532Z,0.60
2023-05-11T00:02:06.489Z,0.59
2023-05-11T00:03:06.663Z,0.60
2023-05-11T00:04:05.620Z,0.59
2023-05-11T00:05:05.514Z,0.59
2023-05-11T00:06:05.506Z,0.59
2023-05-11T00:07:05.506Z,0.57
2023-05-11T00:08:05.483Z,0.58
2023-05-11T00:09:05.534Z,0.58
2023-05-11T00:10:05.516Z,0.56
2023-05-11T00:11:05.531Z,0.56
2023-05-11T00:12:05.525Z,0.57
2023-05-11T00:13:05.496Z,0.56
2023-05-11T00:14:05.532Z,0.56
2023-05-11T00:15:05.555Z,0.55
2023-05-11T00:16:06.037Z,0.55
2023-05-11T00:17:05.422Z,0.53
2023-05-11T00:18:05.452Z,0.54
2023-05-11T00:19:05.578Z,0.55
2023-05-11T00:20:05.426Z,0.54
2023-05-11T00:21:05.420Z,0.55
2023-05-11T00:22:05.416Z,0.56
2023-05-11T00:23:05.408Z,0.55
2023-05-11T00:24:05.383Z,0.55
2023-05-11T00:25:05.496Z,0.55
2023-05-11T00:26:05.389Z,0.56
2023-05-11T00:27:06.072Z,0.55
2023-05-11T00:28:05.996Z,0.57
2023-05-11T00:29:05.345Z,0.55
2023-05-11T00:30:06.068Z,0.54
2023-05-11T00:31:05.391Z,0.55
2023-05-11T00:32:05.334Z,0.53
2023-05-11T00:33:05.365Z,0.53
2023-05-11T00:34:05.338Z,0.53
2023-05-11T00:35:05.357Z,0.52
2023-05-11T00:36:05.297Z,0.53
2023-05-11T00:37:07.048Z,0.52
2023-05-11T00:38:05.366Z,0.53
2023-05-11T00:39:05.330Z,0.51
2023-05-11T00:40:05.291Z,0.51
2023-05-11T00:41:05.510Z,0.52
2023-05-11T00:42:05.271Z,0.52
2023-05-11T00:43:05.239Z,0.51
2023-05-11T00:44:05.307Z,0.51
2023-05-11T00:45:05.983Z,0.52
2023-05-11T00:46:05.274Z,0.51
2023-05-11T00:47:06.207Z,0.51
2023-05-11T00:48:05.269Z,0.51
2023-05-11T00:49:05.274Z,0.51
2023-05-11T00:50:05.263Z,0.50
2023-05-11T00:51:05.192Z,0.50
2023-05-11T00:52:05.212Z,0.51
2023-05-11T00:53:05.181Z,0.51
2023-05-11T00:54:05.177Z,0.53
2023-05-11T00:55:05.179Z,0.53
2023-05-11T00:56:05.179Z,0.53
2023-05-11T00:57:05.163Z,0.54
2023-05-11T00:58:05.202Z,0.53
2023-05-11T00:59:05.162Z,0.53
2023-05-11T01:00:05.154Z,0.53
2023-05-11T01:01:05.202Z,0.52
2023-05-11T01:02:05.125Z,0.52
2023-05-11T01:03:05.146Z,0.52
2023-05-11T01:04:05.184Z,0.53
2023-05-11T01:05:05.129Z,0.53
2023-05-11T01:06:07.053Z,0.52
2023-05-11T01:07:05.077Z,0.54
2023-05-11T01:08:05.095Z,0.54
2023-05-11T01:09:05.181Z,0.54
2023-05-11T01:10:05.153Z,0.54
2023-05-11T01:11:05.160Z,0.55
2023-05-11T01:12:05.114Z,0.54
2023-05-11T01:13:05.089Z,0.54
2023-05-11T01:14:06.049Z,0.55
2023-05-11T01:15:07.034Z,0.55
2023-05-11T01:16:05.147Z,0.55
2023-05-11T01:17:05.068Z,0.55
2023-05-11T01:18:05.073Z,0.55
2023-05-11T01:19:05.077Z,0.55
2023-05-11T01:20:05.023Z,0.54
2023-05-11T01:21:05.005Z,0.54
2023-05-11T01:22:05.008Z,0.52
2023-05-11T01:23:04.980Z,0.53
2023-05-11T01:24:04.995Z,0.53
2023-05-11T01:25:04.978Z,0.52
2023-05-11T01:26:04.974Z,0.53
2023-05-11T01:27:04.981Z,0.52
2023-05-11T01:28:04.950Z,0.53
2023-05-11T01:29:04.946Z,0.53
2023-05-11T01:30:05.527Z,0.52
2023-05-11T01:31:05.060Z,0.52
2023-05-11T01:32:05.101Z,0.51
2023-05-11T01:33:04.942Z,0.52
2023-05-11T01:34:04.918Z,0.53
2023-05-11T01:35:04.966Z,0.53
2023-05-11T01:36:04.917Z,0.51
2023-05-11T01:37:04.906Z,0.51
2023-05-11T01:38:04.900Z,0.52
2023-05-11T01:39:04.894Z,0.51
2023-05-11T01:40:04.911Z,0.49
2023-05-11T01:41:04.870Z,0.47
2023-05-11T01:42:04.864Z,0.49
2023-05-11T01:43:04.865Z,0.50
2023-05-11T01:44:05.521Z,0.49
2023-05-11T01:45:04.893Z,0.49
2023-05-11T01:46:04.887Z,0.49
2023-05-11T01:47:04.845Z,0.48
2023-05-11T01:48:04.899Z,0.50
2023-05-11T01:49:04.830Z,0.50
2023-05-11T01:50:04.910Z,0.51
2023-05-11T01:51:05.548Z,0.51
2023-05-11T01:52:04.802Z,0.51
2023-05-11T01:53:04.810Z,0.51
2023-05-11T01:54:04.884Z,0.51
2023-05-11T01:55:05.041Z,0.50
2023-05-11T01:56:04.782Z,0.51
2023-05-11T01:57:04.782Z,0.50
2023-05-11T01:58:04.757Z,0.50
2023-05-11T01:59:04.775Z,0.52
2023-05-11T02:00:05.055Z,0.53
2023-05-11T02:01:05.538Z,0.51
2023-05-11T02:02:06.582Z,0.52
2023-05-11T02:03:04.834Z,0.51
2023-05-11T02:04:04.708Z,0.51
2023-05-11T02:05:04.719Z,0.51
2023-05-11T02:06:04.709Z,0.50
2023-05-11T02:07:04.713Z,0.51
2023-05-11T02:08:04.720Z,0.51
2023-05-11T02:09:05.541Z,0.50
2023-05-11T02:10:04.682Z,0.50
2023-05-11T02:11:04.683Z,0.50
2023-05-11T02:12:04.661Z,0.50
2023-05-11T02:13:04.710Z,0.50
2023-05-11T02:14:04.692Z,0.51
2023-05-11T02:15:04.741Z,0.51
2023-05-11T02:16:04.692Z,0.52
2023-05-11T02:17:04.671Z,0.52
2023-05-11T02:18:04.658Z,0.52
2023-05-11T02:19:04.672Z,0.54
2023-05-11T02:20:04.647Z,0.54
2023-05-11T02:21:04.608Z,0.54
2023-05-11T02:22:04.617Z,0.54
2023-05-11T02:23:04.615Z,0.53
2023-05-11T02:24:04.588Z,0.53
2023-05-11T02:25:04.598Z,0.54
2023-05-11T02:26:04.569Z,0.53
2023-05-11T02:27:04.602Z,0.54
2023-05-11T02:28:04.570Z,0.52
2023-05-11T02:29:04.584Z,0.51
2023-05-11T02:30:04.535Z,0.51
2023-05-11T02:31:04.595Z,0.52
2023-05-11T02:32:04.518Z,0.52
2023-05-11T02:33:04.564Z,0.52
2023-05-11T02:34:04.552Z,0.50
2023-05-11T02:35:04.531Z,0.51
2023-05-11T02:36:04.494Z,0.52
2023-05-11T02:37:04.614Z,0.50
2023-05-11T02:38:04.482Z,0.51
2023-05-11T02:39:04.484Z,0.53
2023-05-11T02:40:04.475Z,0.51
2023-05-11T02:41:04.446Z,0.53
2023-05-11T02:42:04.454Z,0.52
2023-05-11T02:43:04.459Z,0.53
2023-05-11T02:44:04.451Z,0.53
2023-05-11T02:45:04.433Z,0.52
2023-05-11T02:46:04.428Z,0.54
2023-05-11T02:47:04.549Z,0.53
2023-05-11T02:48:04.473Z,0.54
2023-05-11T02:49:04.436Z,0.53
2023-05-11T02:50:04.424Z,0.53
2023-05-11T02:51:04.419Z,0.54
2023-05-11T02:52:04.400Z,0.54
2023-05-11T02:53:04.366Z,0.54
2023-05-11T02:54:04.366Z,0.54
2023-05-11T02:55:04.396Z,0.54
2023-05-11T02:56:04.401Z,0.55
2023-05-11T02:57:04.381Z,0.55
2023-05-11T02:58:05.401Z,0.55
2023-05-11T02:59:04.419Z,0.54
2023-05-11T03:00:04.350Z,0.54
2023-05-11T03:01:05.192Z,0.54
2023-05-11T03:02:04.459Z,0.55
2023-05-11T03:03:04.409Z,0.55
2023-05-11T03:04:04.302Z,0.54
2023-05-11T03:05:04.389Z,0.54
2023-05-11T03:06:04.304Z,0.53
2023-05-11T03:07:04.342Z,0.52
2023-05-11T03:08:04.303Z,0.54
2023-05-11T03:09:05.062Z,0.53
2023-05-11T03:10:04.302Z,0.54
2023-05-11T03:11:04.274Z,0.53
2023-05-11T03:12:05.038Z,0.53
2023-05-11T03:13:04.308Z,0.54
2023-05-11T03:14:04.246Z,0.53
2023-05-11T03:15:04.278Z,0.53
2023-05-11T03:16:04.228Z,0.53
2023-05-11T03:17:04.250Z,0.53
2023-05-11T03:18:04.241Z,0.53
2023-05-11T03:19:04.282Z,0.52
2023-05-11T03:20:04.579Z,0.53
2023-05-11T03:21:04.180Z,0.53
2023-05-11T03:22:04.277Z,0.54
2023-05-11T03:23:04.158Z,0.55
2023-05-11T03:24:04.169Z,0.53
2023-05-11T03:25:04.172Z,0.54
2023-05-11T03:26:04.154Z,0.54
2023-05-11T03:27:04.163Z,0.54
2023-05-11T03:28:04.147Z,0.54
2023-05-11T03:29:05.077Z,0.56
2023-05-11T03:30:04.131Z,0.56
2023-05-11T03:31:05.064Z,0.53
2023-05-11T03:32:04.162Z,0.54
2023-05-11T03:33:04.123Z,0.56
2023-05-11T03:34:04.094Z,0.54
2023-05-11T03:35:04.144Z,0.55
2023-05-11T03:36:04.109Z,0.55
2023-05-11T03:37:05.078Z,0.56
2023-05-11T03:38:04.096Z,0.55
2023-05-11T03:39:04.056Z,0.55
2023-05-11T03:40:04.107Z,0.54
2023-05-11T03:41:04.058Z,0.54
2023-05-11T03:42:04.152Z,0.55
2023-05-11T03:43:04.084Z,0.56
2023-05-11T03:44:05.079Z,0.55
2023-05-11T03:45:04.026Z,0.55
2023-05-11T03:46:05.621Z,0.55
2023-05-11T03:47:04.042Z,0.55
2023-05-11T03:48:04.074Z,0.55
2023-05-11T03:49:04.015Z,0.55
2023-05-11T03:50:04.002Z,0.57
2023-05-11T03:51:03.998Z,0.58
2023-05-11T03:52:04.019Z,0.58
2023-05-11T03:53:04.025Z,0.57
2023-05-11T03:54:03.974Z,0.55
2023-05-11T03:55:04.030Z,0.56
2023-05-11T03:56:03.955Z,0.56
2023-05-11T03:57:03.989Z,0.56
2023-05-11T03:58:04.497Z,0.57
2023-05-11T03:59:03.968Z,0.58
2023-05-11T04:00:04.015Z,0.57
2023-05-11T04:01:03.920Z,0.58
2023-05-11T04:02:03.929Z,0.58
2023-05-11T04:03:04.034Z,0.58
2023-05-11T04:04:03.969Z,0.58
2023-05-11T04:05:03.891Z,0.59
2023-05-11T04:06:03.996Z,0.58
2023-05-11T04:07:03.980Z,0.58
2023-05-11T04:08:03.866Z,0.57
2023-05-11T04:09:03.860Z,0.58
2023-05-11T04:10:03.941Z,0.58
2023-05-11T04:11:03.856Z,0.58
2023-05-11T04:12:04.580Z,0.58
2023-05-11T04:13:03.848Z,0.58
2023-05-11T04:14:03.887Z,0.58
2023-05-11T04:15:03.832Z,0.58
2023-05-11T04:16:03.857Z,0.58
2023-05-11T04:17:03.821Z,0.58
2023-05-11T04:18:03.858Z,0.58
2023-05-11T04:19:03.991Z,0.58
2023-05-11T04:20:03.804Z,0.60
2023-05-11T04:21:03.793Z,0.58
2023-05-11T04:22:03.781Z,0.58
2023-05-11T04:23:03.776Z,0.59
2023-05-11T04:24:03.808Z,0.58
2023-05-11T04:25:03.767Z,0.58
2023-05-11T04:26:03.757Z,0.59
2023-05-11T04:27:04.565Z,0.59
2023-05-11T04:28:03.824Z,0.59
2023-05-11T04:29:03.829Z,0.57
2023-05-11T04:30:03.758Z,0.57
2023-05-11T04:31:03.811Z,0.59
2023-05-11T04:32:03.772Z,0.58
2023-05-11T04:33:04.617Z,0.58
2023-05-11T04:34:03.716Z,0.57
2023-05-11T04:35:04.591Z,0.58
2023-05-11T04:36:03.689Z,0.57
2023-05-11T04:37:04.601Z,0.57
2023-05-11T04:38:03.681Z,0.58
2023-05-11T04:39:03.678Z,0.57
2023-05-11T04:40:03.668Z,0.57
2023-05-11T04:41:03.652Z,0.55
2023-05-11T04:42:03.623Z,0.54
2023-05-11T04:43:03.621Z,0.54
2023-05-11T04:44:03.642Z,0.56
2023-05-11T04:45:04.101Z,0.56
2023-05-11T04:46:03.630Z,0.55
2023-05-11T04:47:03.694Z,0.56
2023-05-11T04:48:03.612Z,0.53
2023-05-11T04:49:03.591Z,0.54
2023-05-11T04:50:03.621Z,0.53
2023-05-11T04:51:04.613Z,0.52
2023-05-11T04:52:03.580Z,0.52
2023-05-11T04:53:03.556Z,0.53
2023-05-11T04:54:03.585Z,0.51
2023-05-11T04:55:03.579Z,0.51
2023-05-11T04:56:03.571Z,0.52
2023-05-11T04:57:03.526Z,0.51
2023-05-11T04:58:03.554Z,0.51
2023-05-11T04:59:05.404Z,0.51
2023-05-11T05:00:03.530Z,0.52
2023-05-11T05:01:03.565Z,0.51
2023-05-11T05:02:03.498Z,0.51
2023-05-11T05:03:03.602Z,0.52
2023-05-11T05:04:04.389Z,0.53
2023-05-11T05:05:03.510Z,0.54
2023-05-11T05:06:03.470Z,0.54
2023-05-11T05:07:03.483Z,0.57
2023-05-11T05:08:03.521Z,0.56
2023-05-11T05:09:03.449Z,0.55
2023-05-11T05:10:03.482Z,0.56
2023-05-11T05:11:03.480Z,0.56
2023-05-11T05:12:03.455Z,0.55
2023-05-11T05:13:03.610Z,0.55
2023-05-11T05:14:03.418Z,0.56
2023-05-11T05:15:03.458Z,0.53
2023-05-11T05:16:03.468Z,0.51
2023-05-11T05:17:03.484Z,0.51
2023-05-11T05:18:03.450Z,0.50
2023-05-11T05:19:03.542Z,0.50
2023-05-11T05:20:03.383Z,0.50
2023-05-11T05:21:03.376Z,0.50
2023-05-11T05:22:03.364Z,0.50
2023-05-11T05:23:03.388Z,0.50
2023-05-11T05:24:03.363Z,0.50
2023-05-11T05:25:03.340Z,0.50
2023-05-11T05:26:03.348Z,0.50
2023-05-11T05:27:03.334Z,0.51
2023-05-11T05:28:03.693Z,0.59
2023-05-11T05:29:04.344Z,0.58
2023-05-11T05:30:03.346Z,0.59
2023-05-11T05:31:03.709Z,0.66
2023-05-11T05:32:03.435Z,0.78
2023-05-11T05:33:03.445Z,0.85
2023-05-11T05:34:03.294Z,0.95
2023-05-11T05:35:04.392Z,0.92
2023-05-11T05:36:03.904Z,1.01
2023-05-11T05:37:03.291Z,1.26
2023-05-11T05:38:03.249Z,1.29
2023-05-11T05:39:03.241Z,1.28
2023-05-11T05:40:03.318Z,1.29
2023-05-11T05:41:03.277Z,1.52
2023-05-11T05:42:03.202Z,1.66
2023-05-11T05:43:03.281Z,1.80
2023-05-11T05:44:03.268Z,2.08
2023-05-11T05:45:03.193Z,2.43
2023-05-11T05:46:03.696Z,2.66
2023-05-11T05:47:03.177Z,2.92
2023-05-11T05:48:03.322Z,3.11
2023-05-11T05:49:03.217Z,3.34
2023-05-11T05:50:03.258Z,3.42
2023-05-11T05:51:03.298Z,3.58
2023-05-11T05:52:03.355Z,3.62
2023-05-11T05:53:03.394Z,3.94
2023-05-11T05:54:03.464Z,4.21
2023-05-11T05:55:03.537Z,3.60
2023-05-11T05:56:03.574Z,3.55
2023-05-11T05:57:03.767Z,2.01
2023-05-11T05:58:03.705Z,1.89
2023-05-11T05:59:03.811Z,1.75
2023-05-11T06:00:03.804Z,1.87
2023-05-11T06:01:03.838Z,2.18
2023-05-11T06:02:03.879Z,2.58
2023-05-11T06:03:04.066Z,3.11
2023-05-11T06:04:04.129Z,2.93
2023-05-11T06:05:04.131Z,3.15
2023-05-11T06:06:04.633Z,3.73
2023-05-11T06:07:04.171Z,4.15
2023-05-11T06:08:10.642Z,4.34
2023-05-11T06:09:05.256Z,4.36
2023-05-11T06:10:04.241Z,4.41
2023-05-11T06:11:04.613Z,4.38
2023-05-11T06:12:04.217Z,4.50
2023-05-11T06:13:05.111Z,4.79
2023-05-11T06:14:04.222Z,4.39
2023-05-11T06:15:04.190Z,4.60
2023-05-11T06:16:04.306Z,4.42
2023-05-11T06:17:05.139Z,4.69
2023-05-11T06:18:04.295Z,5.24
2023-05-11T06:19:04.314Z,6.15
2023-05-11T06:20:04.176Z,7.64
2023-05-11T06:21:04.658Z,4.44
2023-05-11T06:22:06.522Z,4.80
2023-05-11T06:23:04.167Z,5.49
2023-05-11T06:24:04.151Z,6.57
2023-05-11T06:25:04.128Z,8.40
2023-05-11T06:26:04.145Z,8.00
2023-05-11T06:27:04.147Z,8.50
2023-05-11T06:28:04.118Z,8.50
2023-05-11T06:29:04.094Z,8.65
2023-05-11T06:30:04.097Z,8.43
2023-05-11T06:31:04.159Z,7.66
2023-05-11T06:32:04.280Z,7.76
2023-05-11T06:33:04.144Z,7.91
2023-05-11T06:34:04.058Z,7.83
2023-05-11T06:35:04.082Z,7.70
2023-05-11T06:36:05.092Z,6.35
2023-05-11T06:37:04.085Z,6.96
2023-05-11T06:38:04.117Z,7.41
2023-05-11T06:39:04.035Z,7.69
2023-05-11T06:40:04.077Z,8.00
2023-05-11T06:41:04.161Z,7.42
2023-05-11T06:42:06.567Z,8.08
2023-05-11T06:43:04.135Z,7.40
2023-05-11T06:44:04.013Z,6.49
2023-05-11T06:45:04.688Z,5.35
2023-05-11T06:46:04.750Z,6.05
2023-05-11T06:47:03.967Z,6.46
2023-05-11T06:48:04.002Z,6.80
2023-05-11T06:49:04.011Z,6.47
2023-05-11T06:50:03.962Z,7.07
2023-05-11T06:51:04.148Z,7.35
2023-05-11T06:52:03.958Z,7.66
2023-05-11T06:53:03.981Z,7.69
2023-05-11T06:54:03.983Z,7.73
2023-05-11T06:55:03.957Z,8.01
2023-05-11T06:56:04.139Z,7.76
2023-05-11T06:57:03.924Z,7.56
2023-05-11T06:58:04.966Z,7.55
2023-05-11T06:59:03.892Z,7.56
2023-05-11T07:00:03.902Z,7.57
2023-05-11T07:01:03.951Z,7.56
2023-05-11T07:02:03.885Z,7.56
2023-05-11T07:03:03.959Z,7.59
2023-05-11T07:04:03.989Z,7.59
2023-05-11T07:05:03.966Z,7.57
2023-05-11T07:06:04.678Z,7.44
2023-05-11T07:07:03.831Z,7.38
2023-05-11T07:08:03.902Z,7.50
2023-05-11T07:09:03.835Z,7.48
2023-05-11T07:10:03.834Z,7.51
2023-05-11T07:11:03.877Z,7.30
2023-05-11T07:12:03.807Z,7.42
2023-05-11T07:13:03.803Z,7.37
2023-05-11T07:14:03.822Z,7.43
2023-05-11T07:15:03.789Z,7.37
2023-05-11T07:16:04.185Z,7.26
2023-05-11T07:17:04.685Z,7.19
2023-05-11T07:18:03.850Z,7.27
2023-05-11T07:19:03.921Z,7.14
2023-05-11T07:20:03.885Z,6.85
2023-05-11T07:21:05.149Z,6.99
2023-05-11T07:22:03.882Z,6.27
2023-05-11T07:23:03.914Z,6.74
2023-05-11T07:24:03.961Z,6.80
2023-05-11T07:25:03.930Z,6.74
2023-05-11T07:26:04.210Z,6.77
2023-05-11T07:27:03.956Z,6.73
2023-05-11T07:28:04.004Z,5.15
2023-05-11T07:29:04.059Z,5.13
2023-05-11T07:30:03.954Z,5.17
2023-05-11T07:31:04.231Z,5.40
2023-05-11T07:32:03.981Z,5.70
2023-05-11T07:33:04.036Z,6.36
2023-05-11T07:34:03.950Z,6.64
2023-05-11T07:35:03.950Z,6.68
2023-05-11T07:36:03.966Z,6.30
2023-05-11T07:37:03.917Z,6.24
2023-05-11T07:38:03.908Z,6.20
2023-05-11T07:39:04.010Z,6.12
2023-05-11T07:40:04.782Z,6.33
2023-05-11T07:41:06.492Z,6.32
2023-05-11T07:42:03.883Z,6.33
2023-05-11T07:43:03.878Z,6.34
2023-05-11T07:44:03.861Z,6.12
2023-05-11T07:45:04.790Z,5.91
2023-05-11T07:46:03.905Z,5.83
2023-05-11T07:47:03.826Z,5.48
2023-05-11T07:48:03.872Z,5.26
2023-05-11T07:49:15.717Z,5.15
2023-05-11T07:50:04.836Z,4.91
2023-05-11T07:51:03.836Z,4.75
2023-05-11T07:52:03.815Z,4.41
2023-05-11T07:53:03.831Z,4.10
2023-05-11T07:54:03.830Z,3.65
2023-05-11T07:55:03.832Z,3.55
2023-05-11T07:56:04.198Z,3.35
2023-05-11T07:57:03.790Z,3.17
2023-05-11T07:58:03.843Z,2.88
2023-05-11T07:59:04.679Z,2.76
2023-05-11T08:00:03.826Z,2.76
2023-05-11T08:01:04.190Z,2.67
2023-05-11T08:02:03.764Z,2.58
2023-05-11T08:03:03.781Z,2.57
2023-05-11T08:04:03.754Z,2.43
2023-05-11T08:05:03.828Z,2.38
2023-05-11T08:06:03.819Z,2.13
2023-05-11T08:07:03.756Z,2.11
2023-05-11T08:08:03.711Z,1.92
2023-05-11T08:09:03.710Z,1.87
2023-05-11T08:10:03.685Z,1.83
2023-05-11T08:11:03.713Z,1.81
2023-05-11T08:12:03.758Z,1.81
2023-05-11T08:13:04.190Z,1.74
2023-05-11T08:14:03.695Z,1.69
2023-05-11T08:15:03.663Z,1.65
2023-05-11T08:16:04.214Z,1.64
2023-05-11T08:17:03.704Z,1.95
2023-05-11T08:18:03.751Z,2.15
2023-05-11T08:19:04.694Z,2.26
2023-05-11T08:20:03.695Z,2.55
2023-05-11T08:21:03.785Z,2.65
2023-05-11T08:22:03.608Z,2.88
2023-05-11T08:23:03.663Z,3.16
2023-05-11T08:24:03.665Z,3.28
2023-05-11T08:25:03.732Z,3.61
2023-05-11T08:26:04.278Z,3.90
2023-05-11T08:27:03.760Z,4.18
2023-05-11T08:28:03.817Z,4.30
2023-05-11T08:29:03.855Z,2.15
2023-05-11T08:30:03.860Z,0.66
2023-05-11T08:31:03.938Z,0.46
2023-05-11T08:32:03.926Z,0.43
2023-05-11T08:33:07.865Z,0.41
2023-05-11T08:34:13.741Z,0.34
2023-05-11T08:35:05.020Z,0.34
2023-05-11T08:36:04.173Z,0.34
2023-05-11T08:37:04.710Z,0.34
2023-05-11T08:38:03.917Z,0.34
2023-05-11T08:39:03.906Z,0.34
2023-05-11T08:40:03.945Z,0.40
2023-05-11T08:41:03.894Z,0.45
2023-05-11T08:42:03.943Z,0.51
2023-05-11T08:43:03.872Z,0.62
2023-05-11T08:44:03.887Z,0.75
2023-05-11T08:45:03.893Z,0.92
2023-05-11T08:46:03.938Z,1.07
2023-05-11T08:47:21.252Z,1.28
2023-05-11T08:48:04.924Z,1.29
2023-05-11T08:49:03.826Z,1.35
2023-05-11T08:50:03.813Z,1.48
2023-05-11T08:51:03.820Z,1.79
2023-05-11T08:52:05.144Z,2.45
2023-05-11T08:53:04.085Z,2.85
2023-05-11T08:54:04.065Z,3.09
2023-05-11T08:55:04.050Z,3.10
2023-05-11T08:56:04.044Z,3.17
2023-05-11T08:57:04.082Z,3.21
2023-05-11T08:58:04.043Z,3.54
2023-05-11T08:59:04.027Z,4.40
2023-05-11T09:00:04.031Z,4.65
2023-05-11T09:01:04.068Z,4.15
2023-05-11T09:02:04.199Z,4.89
2023-05-11T09:03:04.041Z,5.62
2023-05-11T09:04:04.081Z,6.33
2023-05-11T09:05:04.100Z,6.74
2023-05-11T09:06:04.042Z,7.17
2023-05-11T09:07:04.204Z,7.24
2023-05-11T09:08:03.957Z,7.74
2023-05-11T09:09:04.020Z,8.07
2023-05-11T09:10:04.174Z,8.35
2023-05-11T09:11:04.106Z,8.68
2023-05-11T09:12:05.742Z,8.71
2023-05-11T09:13:04.103Z,8.83
2023-05-11T09:14:04.050Z,8.72
2023-05-11T09:15:04.032Z,8.81
2023-05-11T09:16:04.151Z,9.74
2023-05-11T09:17:04.190Z,9.13
2023-05-11T09:18:04.208Z,9.68
2023-05-11T09:19:04.172Z,10.86
2023-05-11T09:20:04.014Z,11.00
2023-05-11T09:21:03.978Z,11.19
2023-05-11T09:22:03.987Z,10.18
2023-05-11T09:23:03.973Z,10.47
2023-05-11T09:24:03.969Z,11.21
2023-05-11T09:25:04.215Z,10.85
2023-05-11T09:26:03.969Z,11.07
2023-05-11T09:27:04.416Z,9.89
2023-05-11T09:28:04.012Z,11.00
2023-05-11T09:29:04.314Z,10.00
2023-05-11T09:30:04.053Z,10.39
2023-05-11T09:31:04.032Z,10.56
2023-05-11T09:32:04.291Z,10.97
2023-05-11T09:33:04.111Z,10.47
2023-05-11T09:34:04.070Z,11.21
2023-05-11T09:35:04.083Z,11.85
2023-05-11T09:36:04.112Z,11.36
2023-05-11T09:37:04.135Z,12.17
2023-05-11T09:38:04.160Z,12.89
2023-05-11T09:39:04.203Z,13.08
2023-05-11T09:41:04.129Z,13.78
2023-05-11T09:42:04.123Z,13.67
2023-05-11T09:43:04.182Z,13.87
2023-05-11T09:44:04.117Z,13.60
2023-05-11T09:45:04.104Z,11.11
2023-05-11T09:46:04.153Z,11.11
2023-05-11T09:47:04.203Z,10.85
2023-05-11T09:48:04.202Z,11.57
2023-05-11T09:49:04.083Z,10.72
2023-05-11T09:50:04.773Z,10.87
2023-05-11T09:51:04.060Z,11.28
2023-05-11T09:52:04.214Z,12.49
2023-05-11T09:53:04.092Z,12.85
2023-05-11T09:54:04.039Z,12.32
2023-05-11T09:55:04.066Z,12.19
2023-05-11T09:56:04.035Z,11.98
2023-05-11T09:57:04.022Z,12.78
2023-05-11T09:58:04.013Z,13.69
2023-05-11T09:59:04.292Z,13.95
2023-05-11T10:00:03.982Z,13.92
2023-05-11T10:01:04.046Z,14.11
2023-05-11T10:02:04.018Z,13.99
2023-05-11T10:03:04.131Z,13.94
2023-05-11T10:04:20.567Z,14.32
2023-05-11T10:05:04.953Z,13.82
2023-05-11T10:06:04.134Z,14.20
2023-05-11T10:07:03.987Z,13.89
2023-05-11T10:08:03.991Z,14.16
2023-05-11T10:09:03.979Z,14.27
2023-05-11T10:10:03.914Z,14.26
2023-05-11T10:11:03.953Z,14.35
2023-05-11T10:12:03.978Z,13.75
2023-05-11T10:13:03.975Z,14.34
2023-05-11T10:14:03.908Z,14.36
2023-05-11T10:15:03.890Z,13.10
2023-05-11T10:16:03.908Z,13.54
2023-05-11T10:17:05.742Z,13.57
2023-05-11T10:18:03.982Z,13.73
2023-05-11T10:19:03.963Z,13.86
2023-05-11T10:20:03.878Z,13.64
2023-05-11T10:21:03.901Z,12.94
2023-05-11T10:22:03.876Z,13.75
2023-05-11T10:23:03.860Z,14.41
2023-05-11T10:24:03.839Z,14.38
2023-05-11T10:25:03.843Z,14.41
2023-05-11T10:26:03.818Z,14.57
2023-05-11T10:27:03.846Z,14.80
2023-05-11T10:28:03.792Z,15.39
2023-05-11T10:29:03.807Z,14.38
2023-05-11T10:30:03.788Z,15.78
2023-05-11T10:31:03.797Z,16.78
2023-05-11T10:32:03.828Z,17.47
2023-05-11T10:33:03.930Z,20.01
2023-05-11T10:34:03.789Z,21.46
2023-05-11T10:35:03.746Z,21.54
2023-05-11T10:36:03.749Z,21.58
2023-05-11T10:37:04.229Z,21.53
2023-05-11T10:38:03.808Z,22.10
2023-05-11T10:39:03.773Z,23.74
2023-05-11T10:40:03.717Z,25.83
2023-05-11T10:41:03.736Z,25.30
2023-05-11T10:42:03.713Z,25.88
2023-05-11T10:43:03.790Z,28.12
2023-05-11T10:44:03.700Z,26.83
2023-05-11T10:45:03.688Z,26.72
2023-05-11T10:46:03.751Z,28.31
2023-05-11T10:47:03.654Z,29.70
2023-05-11T10:48:03.779Z,28.63
2023-05-11T10:49:03.757Z,28.51
2023-05-11T10:50:03.808Z,30.91
2023-05-11T10:51:03.888Z,31.47
2023-05-11T10:52:03.930Z,34.20
2023-05-11T10:53:04.017Z,37.94
2023-05-11T10:54:04.053Z,39.18
2023-05-11T10:55:04.119Z,40.23
2023-05-11T10:56:04.191Z,41.13
2023-05-11T10:57:04.305Z,42.72
2023-05-11T10:58:04.253Z,42.82
2023-05-11T10:59:04.244Z,42.86
2023-05-11T11:00:04.225Z,42.84
2023-05-11T11:01:04.810Z,43.28
2023-05-11T11:02:04.310Z,43.51
2023-05-11T11:03:04.213Z,44.06
2023-05-11T11:04:04.179Z,44.21
2023-05-11T11:05:04.203Z,43.99
2023-05-11T11:06:04.369Z,42.74
2023-05-11T11:07:04.249Z,42.62
2023-05-11T11:08:04.440Z,43.63
2023-05-11T11:09:04.383Z,41.82
2023-05-11T11:10:04.423Z,36.51
2023-05-11T11:11:06.152Z,35.22
2023-05-11T11:12:04.773Z,37.45
2023-05-11T11:13:04.594Z,31.12
2023-05-11T11:14:04.636Z,35.03
2023-05-11T11:15:04.832Z,35.80
2023-05-11T11:16:04.806Z,30.39
2023-05-11T11:17:04.823Z,32.69
2023-05-11T11:18:05.828Z,35.21
2023-05-11T11:19:05.080Z,36.67
2023-05-11T11:20:05.746Z,36.12
2023-05-11T11:21:05.034Z,34.83
2023-05-11T11:22:05.219Z,35.55
2023-05-11T11:23:05.141Z,37.09
2023-05-11T11:24:05.210Z,37.17
2023-05-11T11:25:05.338Z,35.91
2023-05-11T11:26:05.361Z,35.67
2023-05-11T11:27:05.396Z,35.94
2023-05-11T11:28:05.375Z,35.12
2023-05-11T11:29:05.442Z,34.92
2023-05-11T11:30:05.529Z,33.61
2023-05-11T11:31:05.544Z,30.13
2023-05-11T11:32:05.568Z,24.76
2023-05-11T11:33:05.672Z,13.97
2023-05-11T11:34:05.605Z,9.07
2023-05-11T11:35:05.584Z,7.84
2023-05-11T11:36:05.590Z,8.57
2023-05-11T11:37:05.632Z,8.37
2023-05-11T11:38:05.650Z,8.03
2023-05-11T11:39:05.593Z,7.92
2023-05-11T11:40:14.564Z,7.00
2023-05-11T11:41:06.605Z,6.18
2023-05-11T11:42:05.579Z,5.47
2023-05-11T11:43:05.553Z,4.55
2023-05-11T11:44:05.569Z,4.59
2023-05-11T11:45:05.523Z,5.61
2023-05-11T11:46:05.544Z,6.34
2023-05-11T11:47:05.523Z,5.83
2023-05-11T11:48:05.815Z,5.79
2023-05-11T11:49:05.532Z,5.63
2023-05-11T11:50:05.549Z,5.09
2023-05-11T11:51:05.532Z,5.02
2023-05-11T11:52:05.498Z,5.70
2023-05-11T11:53:05.494Z,5.66
2023-05-11T11:54:05.553Z,6.37
2023-05-11T11:55:05.469Z,6.81
2023-05-11T11:56:05.485Z,7.09
2023-05-11T11:57:05.453Z,7.31
2023-05-11T11:58:05.456Z,7.27
2023-05-11T11:59:05.433Z,7.21
2023-05-11T12:00:05.480Z,7.38
2023-05-11T12:01:05.404Z,7.53
2023-05-11T12:02:05.416Z,7.34
2023-05-11T12:03:05.595Z,5.04
2023-05-11T12:04:06.360Z,5.17
2023-05-11T12:05:05.450Z,4.28
2023-05-11T12:06:05.401Z,3.80
2023-05-11T12:07:05.433Z,4.29
2023-05-11T12:08:05.388Z,4.67
2023-05-11T12:09:05.404Z,4.78
2023-05-11T12:10:05.380Z,5.74
2023-05-11T12:11:05.354Z,5.83
2023-05-11T12:12:05.329Z,6.18
2023-05-11T12:13:05.340Z,6.96
2023-05-11T12:14:05.352Z,8.75
2023-05-11T12:15:05.322Z,9.70
2023-05-11T12:16:05.313Z,10.61
2023-05-11T12:17:05.301Z,10.84
2023-05-11T12:18:05.305Z,9.59
2023-05-11T12:19:05.413Z,9.77
2023-05-11T12:20:05.304Z,7.88
2023-05-11T12:21:05.270Z,6.28
2023-05-11T12:22:05.274Z,7.64
2023-05-11T12:23:05.302Z,8.72
2023-05-11T12:24:05.264Z,8.75
2023-05-11T12:25:05.247Z,8.78
2023-05-11T12:26:05.218Z,8.85
2023-05-11T12:27:05.253Z,8.85
2023-05-11T12:28:05.248Z,9.05
2023-05-11T12:29:05.199Z,8.81
2023-05-11T12:30:05.254Z,8.67
2023-05-11T12:31:05.199Z,8.51
2023-05-11T12:32:05.333Z,8.57
2023-05-11T12:33:05.351Z,8.47
2023-05-11T12:34:05.388Z,8.31
2023-05-11T12:35:05.478Z,8.19
2023-05-11T12:36:05.516Z,8.28
2023-05-11T12:37:07.319Z,8.36
2023-05-11T12:38:05.602Z,8.38
2023-05-11T12:39:05.544Z,8.39
2023-05-11T12:40:05.563Z,8.37
2023-05-11T12:41:05.558Z,8.70
2023-05-11T12:42:05.558Z,9.15
2023-05-11T12:43:05.627Z,9.38
2023-05-11T12:44:05.562Z,9.39
2023-05-11T12:45:05.599Z,8.98
2023-05-11T12:46:05.544Z,8.73
2023-05-11T12:47:05.528Z,8.44
2023-05-11T12:48:05.562Z,8.25
2023-05-11T12:49:05.502Z,8.28
2023-05-11T12:50:05.485Z,8.21
2023-05-11T12:51:05.487Z,8.22
2023-05-11T12:52:05.465Z,8.22
2023-05-11T12:53:05.476Z,8.24
2023-05-11T12:54:05.458Z,8.19
2023-05-11T12:55:05.515Z,8.22
2023-05-11T12:56:05.458Z,8.24
2023-05-11T12:57:05.456Z,7.00
2023-05-11T12:58:05.482Z,5.96
2023-05-11T12:59:05.579Z,6.30
2023-05-11T13:00:05.413Z,6.47
2023-05-11T13:01:05.487Z,6.31
2023-05-11T13:02:05.425Z,6.55
2023-05-11T13:03:05.499Z,6.66
2023-05-11T13:04:05.413Z,6.78
2023-05-11T13:05:05.365Z,6.80
2023-05-11T13:06:05.393Z,5.21
2023-05-11T13:07:05.385Z,4.80
2023-05-11T13:08:05.372Z,2.95
2023-05-11T13:09:05.336Z,1.90
2023-05-11T13:10:05.364Z,1.58
2023-05-11T13:11:05.342Z,1.17
2023-05-11T13:12:05.318Z,1.00
2023-05-11T13:13:05.328Z,0.84
2023-05-11T13:14:07.389Z,0.74